sensor_id;sensor_type;location;lat;lon;timestamp;pressure;altitude;pressure_sealevel;temperature;humidity
61676;BME280;47574;52.090;5.244;2023-04-28T00:03:09;101392.0;;;16.2;34.14
61676;BME280;47574;52.090;5.244;2023-04-28T00:04:45;101389.0;;;16.16;34.24
61676;BME280;47574;52.090;5.244;2023-04-28T00:06:21;101378.0;;;16.2;34.06
61676;BME280;47574;52.090;5.244;2023-04-28T00:12:46;101357.0;;;16.25;33.94
61676;BME280;47574;52.090;5.244;2023-04-28T00:16:00;101352.0;;;16.12;34.17
61676;BME280;47574;52.090;5.244;2023-04-28T00:17:36;101342.0;;;16.13;34.21
61676;BME280;47574;52.090;5.244;2023-04-28T00:19:12;101342.0;;;15.98;34.49
61676;BME280;47574;52.090;5.244;2023-04-28T00:20:48;101336.0;;;15.93;34.58
61676;BME280;47574;52.090;5.244;2023-04-28T00:24:00;101334.0;;;16.11;34.21
61676;BME280;47574;52.090;5.244;2023-04-28T00:25:36;101327.0;;;16.14;34.18
61676;BME280;47574;52.090;5.244;2023-04-28T00:27:13;101327.0;;;16.03;34.42
61676;BME280;47574;52.090;5.244;2023-04-28T00:30:25;101324.0;;;15.98;34.31
61676;BME280;47574;52.090;5.244;2023-04-28T00:32:02;101325.0;;;16.04;34.57
61676;BME280;47574;52.090;5.244;2023-04-28T00:33:38;101320.0;;;16.0;34.54
61676;BME280;47574;52.090;5.244;2023-04-28T00:36:51;101318.0;;;16.02;34.6
61676;BME280;47574;52.090;5.244;2023-04-28T00:38:27;101318.0;;;16.11;34.61
61676;BME280;47574;52.090;5.244;2023-04-28T00:40:04;101322.0;;;15.87;35.39
61676;BME280;47574;52.090;5.244;2023-04-28T00:43:16;101322.0;;;16.06;34.76
61676;BME280;47574;52.090;5.244;2023-04-28T00:44:52;101317.0;;;16.09;34.53
61676;BME280;47574;52.090;5.244;2023-04-28T00:46:29;101313.0;;;15.94;34.85
61676;BME280;47574;52.090;5.244;2023-04-28T00:48:08;101313.0;;;15.94;34.97
61676;BME280;47574;52.090;5.244;2023-04-28T00:51:22;101312.0;;;15.98;34.81
61676;BME280;47574;52.090;5.244;2023-04-28T00:52:59;101309.0;;;15.97;34.86
61676;BME280;47574;52.090;5.244;2023-04-28T00:54:36;101305.0;;;15.83;35.24
61676;BME280;47574;52.090;5.244;2023-04-28T00:57:49;101299.0;;;16.09;34.94
61676;BME280;47574;52.090;5.244;2023-04-28T00:59:26;101291.0;;;15.98;34.81
61676;BME280;47574;52.090;5.244;2023-04-28T01:02:40;101280.0;;;15.82;35.49
61676;BME280;47574;52.090;5.244;2023-04-28T01:05:55;101283.0;;;15.82;35.31
61676;BME280;47574;52.090;5.244;2023-04-28T01:07:32;101283.0;;;15.81;35.62
61676;BME280;47574;52.090;5.244;2023-04-28T01:09:08;101280.0;;;15.93;35.21
61676;BME280;47574;52.090;5.244;2023-04-28T01:12:20;101280.0;;;15.64;35.78
61676;BME280;47574;52.090;5.244;2023-04-28T01:13:57;101281.0;;;15.87;35.65
61676;BME280;47574;52.090;5.244;2023-04-28T01:15:34;101283.0;;;15.77;35.49
61676;BME280;47574;52.090;5.244;2023-04-28T01:18:47;101284.0;;;15.64;35.64
61676;BME280;47574;52.090;5.244;2023-04-28T01:20:23;101281.0;;;15.64;35.14
61676;BME280;47574;52.090;5.244;2023-04-28T01:21:59;101280.0;;;15.98;34.78
61676;BME280;47574;52.090;5.244;2023-04-28T01:23:35;101281.0;;;15.8;34.82
61676;BME280;47574;52.090;5.244;2023-04-28T01:26:47;101281.0;;;15.87;34.71
61676;BME280;47574;52.090;5.244;2023-04-28T01:28:23;101277.0;;;15.84;34.6
61676;BME280;47574;52.090;5.244;2023-04-28T01:30:00;101273.0;;;15.81;34.82
61676;BME280;47574;52.090;5.244;2023-04-28T01:33:12;101270.0;;;15.85;34.83
61676;BME280;47574;52.090;5.244;2023-04-28T01:34:48;101267.0;;;15.95;34.6
61676;BME280;47574;52.090;5.244;2023-04-28T01:36:24;101257.0;;;15.88;34.75
61676;BME280;47574;52.090;5.244;2023-04-28T01:39:37;101255.0;;;15.83;34.96
61676;BME280;47574;52.090;5.244;2023-04-28T01:41:13;101246.0;;;15.87;34.81
61676;BME280;47574;52.090;5.244;2023-04-28T01:42:49;101245.0;;;15.97;34.79
61676;BME280;47574;52.090;5.244;2023-04-28T01:46:02;101242.0;;;15.75;34.99
61676;BME280;47574;52.090;5.244;2023-04-28T01:47:38;101240.0;;;15.85;34.6
61676;BME280;47574;52.090;5.244;2023-04-28T01:49:14;101234.0;;;15.7;34.86
61676;BME280;47574;52.090;5.244;2023-04-28T01:50:50;101239.0;;;15.77;34.64
61676;BME280;47574;52.090;5.244;2023-04-28T01:54:02;101235.0;;;15.71;34.96
61676;BME280;47574;52.090;5.244;2023-04-28T01:55:38;101231.0;;;15.78;34.83
61676;BME280;47574;52.090;5.244;2023-04-28T01:57:15;101232.0;;;15.75;34.83
61676;BME280;47574;52.090;5.244;2023-04-28T02:00:27;101232.0;;;15.65;34.94
61676;BME280;47574;52.090;5.244;2023-04-28T02:02:03;101234.0;;;15.9;34.54
61676;BME280;47574;52.090;5.244;2023-04-28T02:03:39;101228.0;;;15.88;34.74
61676;BME280;47574;52.090;5.244;2023-04-28T02:06:51;101225.0;;;15.76;34.81
61676;BME280;47574;52.090;5.244;2023-04-28T02:08:27;101220.0;;;15.73;35.01
61676;BME280;47574;52.090;5.244;2023-04-28T02:10:04;101222.0;;;15.84;34.81
61676;BME280;47574;52.090;5.244;2023-04-28T02:13:17;101219.0;;;15.82;34.85
61676;BME280;47574;52.090;5.244;2023-04-28T02:14:53;101216.0;;;15.81;35.0
61676;BME280;47574;52.090;5.244;2023-04-28T02:16:29;101215.0;;;15.62;35.29
61676;BME280;47574;52.090;5.244;2023-04-28T02:18:05;101218.0;;;15.75;34.96
61676;BME280;47574;52.090;5.244;2023-04-28T02:21:17;101212.0;;;15.94;34.67
61676;BME280;47574;52.090;5.244;2023-04-28T02:22:53;101210.0;;;15.87;34.76
61676;BME280;47574;52.090;5.244;2023-04-28T02:24:29;101207.0;;;15.93;34.83
61676;BME280;47574;52.090;5.244;2023-04-28T02:27:45;101202.0;;;16.02;34.64
61676;BME280;47574;52.090;5.244;2023-04-28T02:29:21;101202.0;;;15.78;35.03
61676;BME280;47574;52.090;5.244;2023-04-28T02:31:05;101199.0;;;15.83;35.0
61676;BME280;47574;52.090;5.244;2023-04-28T02:32:49;101196.0;;;15.67;35.22
61676;BME280;47574;52.090;5.244;2023-04-28T02:36:02;101192.0;;;15.62;35.33
61676;BME280;47574;52.090;5.244;2023-04-28T02:37:39;101192.0;;;15.87;34.96
61676;BME280;47574;52.090;5.244;2023-04-28T02:39:16;101191.0;;;15.62;35.35
61676;BME280;47574;52.090;5.244;2023-04-28T02:42:33;101190.0;;;15.79;35.03
61676;BME280;47574;52.090;5.244;2023-04-28T02:44:09;101189.0;;;15.81;35.22
61676;BME280;47574;52.090;5.244;2023-04-28T02:45:45;101178.0;;;15.72;35.25
61676;BME280;47574;52.090;5.244;2023-04-28T02:47:21;101175.0;;;15.74;35.18
61676;BME280;47574;52.090;5.244;2023-04-28T02:50:33;101168.0;;;15.69;35.54
61676;BME280;47574;52.090;5.244;2023-04-28T02:52:10;101157.0;;;15.67;35.44
61676;BME280;47574;52.090;5.244;2023-04-28T02:53:46;101159.0;;;15.56;35.71
61676;BME280;47574;52.090;5.244;2023-04-28T02:56:58;101156.0;;;15.5;35.86
61676;BME280;47574;52.090;5.244;2023-04-28T02:58:34;101155.0;;;15.52;35.85
61676;BME280;47574;52.090;5.244;2023-04-28T03:00:11;101149.0;;;15.59;35.58
61676;BME280;47574;52.090;5.244;2023-04-28T03:03:24;101148.0;;;15.54;35.78
61676;BME280;47574;52.090;5.244;2023-04-28T03:05:01;101145.0;;;15.57;35.67
61676;BME280;47574;52.090;5.244;2023-04-28T03:06:37;101147.0;;;15.68;35.64
61676;BME280;47574;52.090;5.244;2023-04-28T03:08:13;101141.0;;;15.54;35.97
61676;BME280;47574;52.090;5.244;2023-04-28T03:11:25;101139.0;;;15.79;35.61
61676;BME280;47574;52.090;5.244;2023-04-28T03:13:01;101139.0;;;15.7;35.71
61676;BME280;47574;52.090;5.244;2023-04-28T03:14:37;101130.0;;;15.42;35.99
61676;BME280;47574;52.090;5.244;2023-04-28T03:17:49;101125.0;;;15.52;35.96
61676;BME280;47574;52.090;5.244;2023-04-28T03:19:26;101126.0;;;15.53;36.04
61676;BME280;47574;52.090;5.244;2023-04-28T03:21:02;101126.0;;;15.49;35.94
61676;BME280;47574;52.090;5.244;2023-04-28T03:24:14;101131.0;;;15.24;36.46
61676;BME280;47574;52.090;5.244;2023-04-28T03:25:50;101130.0;;;15.55;36.21
61676;BME280;47574;52.090;5.244;2023-04-28T03:27:27;101134.0;;;15.77;35.75
61676;BME280;47574;52.090;5.244;2023-04-28T03:30:38;101134.0;;;15.57;36.1
61676;BME280;47574;52.090;5.244;2023-04-28T03:32:15;101130.0;;;15.55;36.1
61676;BME280;47574;52.090;5.244;2023-04-28T03:33:51;101126.0;;;15.51;36.21
61676;BME280;47574;52.090;5.244;2023-04-28T03:35:27;101120.0;;;15.56;36.04
61676;BME280;47574;52.090;5.244;2023-04-28T03:38:39;101126.0;;;15.57;36.03
61676;BME280;47574;52.090;5.244;2023-04-28T03:40:15;101121.0;;;15.58;36.01
61676;BME280;47574;52.090;5.244;2023-04-28T03:45:04;101117.0;;;15.51;36.46
61676;BME280;47574;52.090;5.244;2023-04-28T03:46:41;101115.0;;;15.56;36.26
61676;BME280;47574;52.090;5.244;2023-04-28T03:48:17;101112.0;;;15.65;36.28
61676;BME280;47574;52.090;5.244;2023-04-28T03:51:29;101111.0;;;15.65;36.25
61676;BME280;47574;52.090;5.244;2023-04-28T03:53:05;101110.0;;;15.73;36.28
61676;BME280;47574;52.090;5.244;2023-04-28T03:54:41;101109.0;;;15.58;36.47
61676;BME280;47574;52.090;5.244;2023-04-28T03:56:17;101105.0;;;15.59;36.76
61676;BME280;47574;52.090;5.244;2023-04-28T03:59:31;101103.0;;;15.59;36.37
61676;BME280;47574;52.090;5.244;2023-04-28T04:01:07;101093.0;;;15.62;36.33
61676;BME280;47574;52.090;5.244;2023-04-28T04:02:43;101085.0;;;15.68;36.32
61676;BME280;47574;52.090;5.244;2023-04-28T04:05:55;101081.0;;;15.63;36.46
61676;BME280;47574;52.090;5.244;2023-04-28T04:07:31;101082.0;;;15.54;36.78
61676;BME280;47574;52.090;5.244;2023-04-28T04:09:07;101075.0;;;15.45;36.67
61676;BME280;47574;52.090;5.244;2023-04-28T04:12:20;101071.0;;;15.45;36.71
61676;BME280;47574;52.090;5.244;2023-04-28T04:13:56;101075.0;;;15.52;36.87
61676;BME280;47574;52.090;5.244;2023-04-28T04:15:32;101077.0;;;15.51;36.87
61676;BME280;47574;52.090;5.244;2023-04-28T04:18:44;101078.0;;;15.71;36.64
61676;BME280;47574;52.090;5.244;2023-04-28T04:20:20;101080.0;;;15.75;36.47
61676;BME280;47574;52.090;5.244;2023-04-28T04:21:57;101080.0;;;15.78;36.35
61676;BME280;47574;52.090;5.244;2023-04-28T04:23:33;101080.0;;;15.72;36.29
61676;BME280;47574;52.090;5.244;2023-04-28T04:26:46;101076.0;;;15.6;36.85
61676;BME280;47574;52.090;5.244;2023-04-28T04:28:22;101074.0;;;15.59;36.71
61676;BME280;47574;52.090;5.244;2023-04-28T04:29:58;101063.0;;;15.58;36.76
61676;BME280;47574;52.090;5.244;2023-04-28T04:33:10;101064.0;;;15.44;37.24
61676;BME280;47574;52.090;5.244;2023-04-28T04:34:46;101059.0;;;15.66;36.74
61676;BME280;47574;52.090;5.244;2023-04-28T04:36:22;101052.0;;;15.77;36.71
61676;BME280;47574;52.090;5.244;2023-04-28T04:39:35;101048.0;;;15.72;36.92
61676;BME280;47574;52.090;5.244;2023-04-28T04:41:11;101051.0;;;15.62;37.28
61676;BME280;47574;52.090;5.244;2023-04-28T04:42:47;101055.0;;;15.71;37.07
61676;BME280;47574;52.090;5.244;2023-04-28T04:45:59;101055.0;;;15.56;37.56
61676;BME280;47574;52.090;5.244;2023-04-28T04:47:35;101049.0;;;15.59;37.54
61676;BME280;47574;52.090;5.244;2023-04-28T04:49:11;101040.0;;;15.37;37.93
61676;BME280;47574;52.090;5.244;2023-04-28T04:50:47;101036.0;;;15.87;37.28
61676;BME280;47574;52.090;5.244;2023-04-28T04:54:00;101034.0;;;15.71;37.53
61676;BME280;47574;52.090;5.244;2023-04-28T04:55:36;101032.0;;;15.62;37.74
61676;BME280;47574;52.090;5.244;2023-04-28T04:57:12;101026.0;;;15.68;37.58
61676;BME280;47574;52.090;5.244;2023-04-28T05:00:27;101026.0;;;15.62;37.75
61676;BME280;47574;52.090;5.244;2023-04-28T05:02:03;101026.0;;;15.71;37.68
61676;BME280;47574;52.090;5.244;2023-04-28T05:03:40;101026.0;;;15.58;38.17
61676;BME280;47574;52.090;5.244;2023-04-28T05:06:52;101025.0;;;15.66;38.1
61676;BME280;47574;52.090;5.244;2023-04-28T05:08:28;101028.0;;;15.63;38.31
61676;BME280;47574;52.090;5.244;2023-04-28T05:10:05;101022.0;;;15.63;38.62
61676;BME280;47574;52.090;5.244;2023-04-28T05:11:41;101009.0;;;15.66;38.53
61676;BME280;47574;52.090;5.244;2023-04-28T05:14:53;101012.0;;;15.88;38.24
61676;BME280;47574;52.090;5.244;2023-04-28T05:16:29;101015.0;;;15.87;38.57
61676;BME280;47574;52.090;5.244;2023-04-28T05:18:06;101022.0;;;15.81;39.56
61676;BME280;47574;52.090;5.244;2023-04-28T05:21:18;101030.0;;;15.7;40.49
61676;BME280;47574;52.090;5.244;2023-04-28T05:22:54;101043.0;;;15.81;40.4
61676;BME280;47574;52.090;5.244;2023-04-28T05:24:30;101046.0;;;15.74;39.92
61676;BME280;47574;52.090;5.244;2023-04-28T05:27:42;101046.0;;;15.82;40.03
61676;BME280;47574;52.090;5.244;2023-04-28T05:29:19;101051.0;;;15.8;40.75
61676;BME280;47574;52.090;5.244;2023-04-28T05:30:55;101050.0;;;15.87;40.56
61676;BME280;47574;52.090;5.244;2023-04-28T05:34:09;101042.0;;;16.0;40.54
61676;BME280;47574;52.090;5.244;2023-04-28T05:35:45;101035.0;;;15.97;41.07
61676;BME280;47574;52.090;5.244;2023-04-28T05:37:21;101038.0;;;15.87;41.27
61676;BME280;47574;52.090;5.244;2023-04-28T05:38:58;101033.0;;;15.81;42.17
61676;BME280;47574;52.090;5.244;2023-04-28T05:42:11;101031.0;;;15.85;42.19
61676;BME280;47574;52.090;5.244;2023-04-28T05:43:47;101036.0;;;15.62;43.97
61676;BME280;47574;52.090;5.244;2023-04-28T05:45:23;101042.0;;;15.79;43.62
61676;BME280;47574;52.090;5.244;2023-04-28T05:48:36;101040.0;;;15.97;44.06
61676;BME280;47574;52.090;5.244;2023-04-28T05:50:12;101047.0;;;15.84;44.57
61676;BME280;47574;52.090;5.244;2023-04-28T05:51:49;101046.0;;;15.88;45.63
61676;BME280;47574;52.090;5.244;2023-04-28T05:55:02;101047.0;;;15.94;45.38
61676;BME280;47574;52.090;5.244;2023-04-28T05:56:38;101049.0;;;15.76;45.66
61676;BME280;47574;52.090;5.244;2023-04-28T05:58:14;101050.0;;;15.65;46.24
61676;BME280;47574;52.090;5.244;2023-04-28T05:59:50;101044.0;;;15.65;46.57
61676;BME280;47574;52.090;5.244;2023-04-28T06:03:02;101040.0;;;15.8;46.16
61676;BME280;47574;52.090;5.244;2023-04-28T06:04:40;101038.0;;;15.73;46.58
61676;BME280;47574;52.090;5.244;2023-04-28T06:06:17;101036.0;;;15.43;47.57
61676;BME280;47574;52.090;5.244;2023-04-28T06:09:29;101031.0;;;15.62;47.27
61676;BME280;47574;52.090;5.244;2023-04-28T06:11:05;101024.0;;;15.65;47.05
61676;BME280;47574;52.090;5.244;2023-04-28T06:12:41;101014.0;;;15.52;48.1
61676;BME280;47574;52.090;5.244;2023-04-28T06:15:53;101011.0;;;15.47;47.91
61676;BME280;47574;52.090;5.244;2023-04-28T06:17:29;101011.0;;;15.56;48.12
61676;BME280;47574;52.090;5.244;2023-04-28T06:20:42;101014.0;;;15.69;48.53
61676;BME280;47574;52.090;5.244;2023-04-28T06:22:18;101012.0;;;15.73;48.62
61676;BME280;47574;52.090;5.244;2023-04-28T06:23:54;101011.0;;;15.59;49.21
61676;BME280;47574;52.090;5.244;2023-04-28T06:27:06;101005.0;;;15.77;48.78
61676;BME280;47574;52.090;5.244;2023-04-28T06:28:42;101005.0;;;15.85;49.08
61676;BME280;47574;52.090;5.244;2023-04-28T06:30:21;100998.0;;;15.85;49.46
61676;BME280;47574;52.090;5.244;2023-04-28T06:31:57;100994.0;;;15.99;49.8
61676;BME280;47574;52.090;5.244;2023-04-28T06:35:10;100995.0;;;15.95;49.69
61676;BME280;47574;52.090;5.244;2023-04-28T06:36:46;100995.0;;;15.97;50.13
61676;BME280;47574;52.090;5.244;2023-04-28T06:38:22;100995.0;;;15.75;50.98
61676;BME280;47574;52.090;5.244;2023-04-28T06:41:34;101001.0;;;15.56;51.84
61676;BME280;47574;52.090;5.244;2023-04-28T06:43:10;101000.0;;;15.64;51.67
61676;BME280;47574;52.090;5.244;2023-04-28T06:44:46;100998.0;;;15.7;51.73
61676;BME280;47574;52.090;5.244;2023-04-28T06:47:59;101003.0;;;15.85;51.75
61676;BME280;47574;52.090;5.244;2023-04-28T06:49:35;101005.0;;;15.99;51.01
61676;BME280;47574;52.090;5.244;2023-04-28T06:51:10;101005.0;;;16.04;51.69
61676;BME280;47574;52.090;5.244;2023-04-28T06:52:46;100992.0;;;16.06;51.51
61676;BME280;47574;52.090;5.244;2023-04-28T06:55:58;100988.0;;;16.22;51.22
61676;BME280;47574;52.090;5.244;2023-04-28T06:57:35;100982.0;;;16.27;51.3
61676;BME280;47574;52.090;5.244;2023-04-28T06:59:12;100985.0;;;16.23;51.3
61676;BME280;47574;52.090;5.244;2023-04-28T07:02:24;100987.0;;;16.38;51.01
61676;BME280;47574;52.090;5.244;2023-04-28T07:04:00;100980.0;;;16.07;52.03
61676;BME280;47574;52.090;5.244;2023-04-28T07:05:36;100989.0;;;16.46;51.25
61676;BME280;47574;52.090;5.244;2023-04-28T07:08:48;100987.0;;;16.32;51.57
61676;BME280;47574;52.090;5.244;2023-04-28T07:10:24;100989.0;;;16.39;51.53
61676;BME280;47574;52.090;5.244;2023-04-28T07:12:01;100992.0;;;16.48;51.61
61676;BME280;47574;52.090;5.244;2023-04-28T07:15:14;100995.0;;;16.68;51.41
61676;BME280;47574;52.090;5.244;2023-04-28T07:16:50;100998.0;;;16.77;51.35
61676;BME280;47574;52.090;5.244;2023-04-28T07:18:26;100995.0;;;16.82;51.34
61676;BME280;47574;52.090;5.244;2023-04-28T07:20:03;100997.0;;;16.75;51.23
61676;BME280;47574;52.090;5.244;2023-04-28T07:23:16;100996.0;;;16.86;51.16
61676;BME280;47574;52.090;5.244;2023-04-28T07:24:53;101003.0;;;16.84;51.17
61676;BME280;47574;52.090;5.244;2023-04-28T07:26:29;101003.0;;;16.93;51.28
61676;BME280;47574;52.090;5.244;2023-04-28T07:29:42;100999.0;;;16.65;51.79
61676;BME280;47574;52.090;5.244;2023-04-28T07:31:18;100994.0;;;16.86;51.46
61676;BME280;47574;52.090;5.244;2023-04-28T07:32:54;100992.0;;;16.84;51.71
61676;BME280;47574;52.090;5.244;2023-04-28T07:36:07;100989.0;;;17.09;50.89
61676;BME280;47574;52.090;5.244;2023-04-28T07:37:43;100992.0;;;16.98;52.04
61676;BME280;47574;52.090;5.244;2023-04-28T07:39:19;100994.0;;;16.89;52.09
61676;BME280;47574;52.090;5.244;2023-04-28T07:40:55;100988.0;;;17.3;50.92
61676;BME280;47574;52.090;5.244;2023-04-28T07:44:07;100990.0;;;17.29;50.88
61676;BME280;47574;52.090;5.244;2023-04-28T07:45:43;100986.0;;;17.2;51.24
61676;BME280;47574;52.090;5.244;2023-04-28T07:47:19;100981.0;;;17.39;51.08
61676;BME280;47574;52.090;5.244;2023-04-28T07:50:32;100982.0;;;17.28;51.42
61676;BME280;47574;52.090;5.244;2023-04-28T07:52:09;100987.0;;;17.37;51.23
61676;BME280;47574;52.090;5.244;2023-04-28T07:53:45;100984.0;;;17.47;51.08
61676;BME280;47574;52.090;5.244;2023-04-28T07:56:57;100988.0;;;17.41;51.73
61676;BME280;47574;52.090;5.244;2023-04-28T07:58:33;100985.0;;;17.27;51.69
61676;BME280;47574;52.090;5.244;2023-04-28T08:00:10;100983.0;;;16.91;52.59
61676;BME280;47574;52.090;5.244;2023-04-28T08:03:23;100987.0;;;17.16;52.07
61676;BME280;47574;52.090;5.244;2023-04-28T08:04:59;100983.0;;;17.3;51.95
61676;BME280;47574;52.090;5.244;2023-04-28T08:06:35;100980.0;;;17.32;52.46
61676;BME280;47574;52.090;5.244;2023-04-28T08:08:11;100982.0;;;17.5;52.82
61676;BME280;47574;52.090;5.244;2023-04-28T08:11:23;100987.0;;;17.36;53.42
61676;BME280;47574;52.090;5.244;2023-04-28T08:13:00;100986.0;;;17.5;53.45
61676;BME280;47574;52.090;5.244;2023-04-28T08:14:37;100990.0;;;17.46;53.67
61676;BME280;47574;52.090;5.244;2023-04-28T08:17:49;100992.0;;;17.29;53.89
61676;BME280;47574;52.090;5.244;2023-04-28T08:19:26;100990.0;;;17.27;54.46
61676;BME280;47574;52.090;5.244;2023-04-28T08:21:02;100991.0;;;17.41;54.79
61676;BME280;47574;52.090;5.244;2023-04-28T08:24:14;100990.0;;;17.47;55.13
61676;BME280;47574;52.090;5.244;2023-04-28T08:25:50;100990.0;;;17.41;55.39
61676;BME280;47574;52.090;5.244;2023-04-28T08:27:27;100989.0;;;17.31;56.01
61676;BME280;47574;52.090;5.244;2023-04-28T08:29:03;100984.0;;;17.23;56.92
61676;BME280;47574;52.090;5.244;2023-04-28T08:32:15;100975.0;;;17.47;56.88
61676;BME280;47574;52.090;5.244;2023-04-28T08:33:51;100977.0;;;17.21;57.81
61676;BME280;47574;52.090;5.244;2023-04-28T08:35:28;100973.0;;;17.23;57.91
61676;BME280;47574;52.090;5.244;2023-04-28T08:38:41;100970.0;;;17.41;57.75
61676;BME280;47574;52.090;5.244;2023-04-28T08:40:18;100970.0;;;17.41;58.29
61676;BME280;47574;52.090;5.244;2023-04-28T08:41:55;100974.0;;;17.5;58.15
61676;BME280;47574;52.090;5.244;2023-04-28T08:45:12;100972.0;;;17.5;58.57
61676;BME280;47574;52.090;5.244;2023-04-28T08:46:48;100977.0;;;17.73;57.94
61676;BME280;47574;52.090;5.244;2023-04-28T08:48:30;100984.0;;;17.43;58.64
61676;BME280;47574;52.090;5.244;2023-04-28T08:50:14;100981.0;;;17.68;57.98
61676;BME280;47574;52.090;5.244;2023-04-28T08:53:37;100982.0;;;17.7;57.84
61676;BME280;47574;52.090;5.244;2023-04-28T08:55:14;100978.0;;;17.59;58.11
61676;BME280;47574;52.090;5.244;2023-04-28T08:56:51;100981.0;;;17.64;57.89
61676;BME280;47574;52.090;5.244;2023-04-28T08:58:27;100981.0;;;17.73;57.83
61676;BME280;47574;52.090;5.244;2023-04-28T09:01:40;100980.0;;;17.68;58.27
61676;BME280;47574;52.090;5.244;2023-04-28T09:03:16;100974.0;;;17.59;58.41
61676;BME280;47574;52.090;5.244;2023-04-28T09:04:52;100974.0;;;17.64;58.22
61676;BME280;47574;52.090;5.244;2023-04-28T09:08:08;100975.0;;;17.43;59.02
61676;BME280;47574;52.090;5.244;2023-04-28T09:09:44;100973.0;;;17.66;58.73
61676;BME280;47574;52.090;5.244;2023-04-28T09:11:20;100972.0;;;17.68;58.68
61676;BME280;47574;52.090;5.244;2023-04-28T09:12:56;100966.0;;;17.8;58.19
61676;BME280;47574;52.090;5.244;2023-04-28T09:16:11;100969.0;;;17.61;58.87
61676;BME280;47574;52.090;5.244;2023-04-28T09:17:48;100972.0;;;17.8;58.57
61676;BME280;47574;52.090;5.244;2023-04-28T09:19:31;100972.0;;;17.84;58.65
61676;BME280;47574;52.090;5.244;2023-04-28T09:22:45;100968.0;;;17.63;59.24
61676;BME280;47574;52.090;5.244;2023-04-28T09:24:29;100967.0;;;17.72;59.41
61676;BME280;47574;52.090;5.244;2023-04-28T09:26:06;100967.0;;;17.55;60.07
61676;BME280;47574;52.090;5.244;2023-04-28T09:27:43;100969.0;;;17.41;60.5
61676;BME280;47574;52.090;5.244;2023-04-28T09:30:55;100966.0;;;17.77;59.98
61676;BME280;47574;52.090;5.244;2023-04-28T09:32:31;100965.0;;;17.79;60.18
61676;BME280;47574;52.090;5.244;2023-04-28T09:34:07;100968.0;;;17.97;59.99
61676;BME280;47574;52.090;5.244;2023-04-28T09:37:22;100963.0;;;17.8;60.53
61676;BME280;47574;52.090;5.244;2023-04-28T09:38:59;100966.0;;;17.7;60.97
61676;BME280;47574;52.090;5.244;2023-04-28T09:40:49;100964.0;;;17.55;61.32
61676;BME280;47574;52.090;5.244;2023-04-28T09:42:31;100964.0;;;17.54;61.84
61676;BME280;47574;52.090;5.244;2023-04-28T09:45:46;100963.0;;;17.71;61.49
61676;BME280;47574;52.090;5.244;2023-04-28T09:47:22;100961.0;;;17.73;61.66
61676;BME280;47574;52.090;5.244;2023-04-28T09:49:00;100959.0;;;17.77;61.36
61676;BME280;47574;52.090;5.244;2023-04-28T09:50:39;100962.0;;;17.93;61.23
61676;BME280;47574;52.090;5.244;2023-04-28T09:53:51;100959.0;;;18.05;60.99
61676;BME280;47574;52.090;5.244;2023-04-28T09:55:29;100957.0;;;17.95;61.31
61676;BME280;47574;52.090;5.244;2023-04-28T09:57:08;100958.0;;;18.06;61.05
61676;BME280;47574;52.090;5.244;2023-04-28T10:00:26;100959.0;;;17.91;61.52
61676;BME280;47574;52.090;5.244;2023-04-28T10:02:04;100963.0;;;17.93;61.66
61676;BME280;47574;52.090;5.244;2023-04-28T10:03:40;100958.0;;;18.2;60.77
61676;BME280;47574;52.090;5.244;2023-04-28T10:05:17;100955.0;;;18.21;61.02
61676;BME280;47574;52.090;5.244;2023-04-28T10:08:32;100952.0;;;18.16;60.97
61676;BME280;47574;52.090;5.244;2023-04-28T10:10:10;100958.0;;;18.11;61.07
61676;BME280;47574;52.090;5.244;2023-04-28T10:11:46;100959.0;;;18.12;61.09
61676;BME280;47574;52.090;5.244;2023-04-28T10:15:00;100955.0;;;18.34;60.41
61676;BME280;47574;52.090;5.244;2023-04-28T10:16:37;100958.0;;;18.04;61.04
61676;BME280;47574;52.090;5.244;2023-04-28T10:18:14;100958.0;;;18.27;60.39
61676;BME280;47574;52.090;5.244;2023-04-28T10:21:31;100955.0;;;18.45;60.02
61676;BME280;47574;52.090;5.244;2023-04-28T10:24:20;100957.0;;;18.25;60.63
61676;BME280;47574;52.090;5.244;2023-04-28T10:26:02;100961.0;;;18.22;60.45
61676;BME280;47574;52.090;5.244;2023-04-28T10:27:46;100958.0;;;18.18;60.55
61676;BME280;47574;52.090;5.244;2023-04-28T10:29:24;100961.0;;;18.04;60.85
61676;BME280;47574;52.090;5.244;2023-04-28T10:31:09;100959.0;;;18.13;60.86
61676;BME280;47574;52.090;5.244;2023-04-28T10:32:45;100964.0;;;17.95;61.58
61676;BME280;47574;52.090;5.244;2023-04-28T10:35:59;100957.0;;;17.79;61.89
61676;BME280;47574;52.090;5.244;2023-04-28T10:38:09;100962.0;;;17.88;62.21
61676;BME280;47574;52.090;5.244;2023-04-28T10:40:50;100959.0;;;18.27;61.08
61676;BME280;47574;52.090;5.244;2023-04-28T10:42:58;100958.0;;;18.18;61.45
61676;BME280;47574;52.090;5.244;2023-04-28T10:44:41;100959.0;;;18.23;61.38
61676;BME280;47574;52.090;5.244;2023-04-28T10:46:17;100956.0;;;17.96;62.22
61676;BME280;47574;52.090;5.244;2023-04-28T10:48:01;100958.0;;;18.13;61.9
61676;BME280;47574;52.090;5.244;2023-04-28T10:50:09;100960.0;;;18.23;61.8
61676;BME280;47574;52.090;5.244;2023-04-28T10:51:46;100962.0;;;18.2;62.04
61676;BME280;47574;52.090;5.244;2023-04-28T10:54:06;100962.0;;;18.11;62.56
61676;BME280;47574;52.090;5.244;2023-04-28T10:55:42;100968.0;;;18.03;62.81
61676;BME280;47574;52.090;5.244;2023-04-28T10:58:57;100963.0;;;17.96;63.12
61676;BME280;47574;52.090;5.244;2023-04-28T11:00:33;100965.0;;;17.93;63.42
61676;BME280;47574;52.090;5.244;2023-04-28T11:02:41;100965.0;;;17.84;63.78
61676;BME280;47574;52.090;5.244;2023-04-28T11:04:17;100962.0;;;18.22;62.8
61676;BME280;47574;52.090;5.244;2023-04-28T11:08:33;100963.0;;;17.91;64.19
61676;BME280;47574;52.090;5.244;2023-04-28T11:10:09;100962.0;;;17.7;64.94
61676;BME280;47574;52.090;5.244;2023-04-28T11:13:40;100964.0;;;18.25;63.45
61676;BME280;47574;52.090;5.244;2023-04-28T11:15:17;100955.0;;;18.14;63.73
61676;BME280;47574;52.090;5.244;2023-04-28T11:16:55;100949.0;;;17.88;63.98
61676;BME280;47574;52.090;5.244;2023-04-28T11:18:44;100950.0;;;18.27;62.84